Terminal Aerodrome Forecast
Issued by NWS

Home | Current Version | Previous Version | Text Only | Print | Product List | Glossary On
Versions: 1 2 3 4 5 6 7 8 9 10 11 12 13 14 15 16 17 18 19 20 21 22 23 24
000
FTUS43 KICT 190337 AAA
TAFCNU
TAF AMD
KCNU 190337Z 1904/1924 17016G24KT P6SM BKN008 WS020/21050KT
     FM190600 18019G27KT P6SM VCSH OVC009 WS020/21055KT
     FM190900 18017G25KT P6SM -SHRA VCTS OVC008CB WS020/21050KT
     FM191400 19022G31KT P6SM -SHRA OVC009=

USA.gov is the U.S. government's official web portal to all federal, state and local government web resources and services.